sensor_id;sensor_type;location;lat;lon;timestamp;P1;durP1;ratioP1;P2;durP2;ratioP2
289;SDS011;13193;48.874;9.086;2022-07-22T00:02:13;17.37;;;10.80;;
289;SDS011;13193;48.874;9.086;2022-07-22T00:04:39;17.97;;;10.90;;
289;SDS011;13193;48.874;9.086;2022-07-22T00:07:05;17.33;;;10.87;;
289;SDS011;13193;48.874;9.086;2022-07-22T00:09:30;16.47;;;9.90;;
289;SDS011;13193;48.874;9.086;2022-07-22T00:11:57;16.80;;;10.97;;
289;SDS011;13193;48.874;9.086;2022-07-22T00:14:22;18.10;;;10.87;;
289;SDS011;13193;48.874;9.086;2022-07-22T00:16:48;16.00;;;10.90;;
289;SDS011;13193;48.874;9.086;2022-07-22T00:19:14;19.20;;;10.00;;
289;SDS011;13193;48.874;9.086;2022-07-22T00:21:40;15.30;;;9.03;;
289;SDS011;13193;48.874;9.086;2022-07-22T00:24:05;24.20;;;10.97;;
289;SDS011;13193;48.874;9.086;2022-07-22T00:26:31;19.90;;;10.23;;
289;SDS011;13193;48.874;9.086;2022-07-22T00:28:57;16.67;;;10.23;;
289;SDS011;13193;48.874;9.086;2022-07-22T00:31:22;17.83;;;10.00;;
289;SDS011;13193;48.874;9.086;2022-07-22T00:33:48;16.93;;;10.40;;
289;SDS011;13193;48.874;9.086;2022-07-22T00:36:14;15.80;;;9.30;;
289;SDS011;13193;48.874;9.086;2022-07-22T00:38:39;17.70;;;10.43;;
289;SDS011;13193;48.874;9.086;2022-07-22T00:41:05;24.73;;;10.00;;
289;SDS011;13193;48.874;9.086;2022-07-22T00:46:26;14.63;;;9.60;;
289;SDS011;13193;48.874;9.086;2022-07-22T00:48:53;21.80;;;10.07;;
289;SDS011;13193;48.874;9.086;2022-07-22T00:51:19;15.47;;;10.80;;
289;SDS011;13193;48.874;9.086;2022-07-22T00:53:46;18.60;;;10.30;;
289;SDS011;13193;48.874;9.086;2022-07-22T00:56:12;16.70;;;9.73;;
289;SDS011;13193;48.874;9.086;2022-07-22T00:58:39;21.30;;;10.00;;
289;SDS011;13193;48.874;9.086;2022-07-22T01:01:05;16.20;;;10.57;;
289;SDS011;13193;48.874;9.086;2022-07-22T01:03:30;18.07;;;10.80;;
289;SDS011;13193;48.874;9.086;2022-07-22T01:05:56;18.40;;;9.90;;
289;SDS011;13193;48.874;9.086;2022-07-22T01:08:22;17.90;;;10.90;;
289;SDS011;13193;48.874;9.086;2022-07-22T01:10:48;18.53;;;10.67;;
289;SDS011;13193;48.874;9.086;2022-07-22T01:13:14;17.67;;;10.93;;
289;SDS011;13193;48.874;9.086;2022-07-22T01:15:39;20.73;;;10.67;;
289;SDS011;13193;48.874;9.086;2022-07-22T01:18:05;18.90;;;11.53;;
289;SDS011;13193;48.874;9.086;2022-07-22T01:20:31;16.83;;;10.87;;
289;SDS011;13193;48.874;9.086;2022-07-22T01:22:59;18.53;;;10.37;;
289;SDS011;13193;48.874;9.086;2022-07-22T01:25:24;18.20;;;11.00;;
289;SDS011;13193;48.874;9.086;2022-07-22T01:27:50;19.80;;;11.10;;
289;SDS011;13193;48.874;9.086;2022-07-22T01:30:16;16.10;;;10.50;;
289;SDS011;13193;48.874;9.086;2022-07-22T01:32:42;18.07;;;10.93;;
289;SDS011;13193;48.874;9.086;2022-07-22T01:35:08;18.23;;;10.40;;
289;SDS011;13193;48.874;9.086;2022-07-22T01:37:33;20.83;;;10.80;;
289;SDS011;13193;48.874;9.086;2022-07-22T01:39:59;17.97;;;10.30;;
289;SDS011;13193;48.874;9.086;2022-07-22T01:42:25;20.00;;;10.83;;
289;SDS011;13193;48.874;9.086;2022-07-22T01:44:51;22.13;;;12.20;;
289;SDS011;13193;48.874;9.086;2022-07-22T01:47:18;21.70;;;11.80;;
289;SDS011;13193;48.874;9.086;2022-07-22T01:49:43;21.83;;;10.80;;
289;SDS011;13193;48.874;9.086;2022-07-22T01:52:09;20.50;;;11.30;;
289;SDS011;13193;48.874;9.086;2022-07-22T01:54:35;16.63;;;10.47;;
289;SDS011;13193;48.874;9.086;2022-07-22T01:57:01;16.70;;;10.70;;
289;SDS011;13193;48.874;9.086;2022-07-22T01:59:27;17.73;;;10.60;;
289;SDS011;13193;48.874;9.086;2022-07-22T02:01:52;25.80;;;13.53;;
289;SDS011;13193;48.874;9.086;2022-07-22T02:04:18;19.30;;;11.73;;
289;SDS011;13193;48.874;9.086;2022-07-22T02:06:44;21.00;;;11.83;;
289;SDS011;13193;48.874;9.086;2022-07-22T02:09:10;19.83;;;12.17;;
289;SDS011;13193;48.874;9.086;2022-07-22T02:11:35;23.60;;;13.00;;
289;SDS011;13193;48.874;9.086;2022-07-22T02:14:01;20.03;;;11.73;;
289;SDS011;13193;48.874;9.086;2022-07-22T02:16:27;18.40;;;10.30;;
289;SDS011;13193;48.874;9.086;2022-07-22T02:18:53;19.20;;;11.40;;
289;SDS011;13193;48.874;9.086;2022-07-22T02:21:19;23.20;;;12.10;;
289;SDS011;13193;48.874;9.086;2022-07-22T02:23:44;25.97;;;11.87;;
289;SDS011;13193;48.874;9.086;2022-07-22T02:26:10;20.70;;;12.67;;
289;SDS011;13193;48.874;9.086;2022-07-22T02:28:36;22.53;;;12.40;;
289;SDS011;13193;48.874;9.086;2022-07-22T02:31:02;22.20;;;12.40;;
289;SDS011;13193;48.874;9.086;2022-07-22T02:33:28;19.67;;;12.20;;
289;SDS011;13193;48.874;9.086;2022-07-22T02:35:55;21.97;;;11.30;;
289;SDS011;13193;48.874;9.086;2022-07-22T02:38:21;22.80;;;12.10;;
289;SDS011;13193;48.874;9.086;2022-07-22T02:40:46;25.13;;;12.87;;
289;SDS011;13193;48.874;9.086;2022-07-22T02:43:12;19.73;;;11.73;;
289;SDS011;13193;48.874;9.086;2022-07-22T02:45:38;18.07;;;11.43;;
289;SDS011;13193;48.874;9.086;2022-07-22T02:48:04;22.33;;;11.93;;
289;SDS011;13193;48.874;9.086;2022-07-22T02:50:30;22.23;;;11.90;;
289;SDS011;13193;48.874;9.086;2022-07-22T02:52:57;19.00;;;11.83;;
289;SDS011;13193;48.874;9.086;2022-07-22T02:55:32;23.30;;;14.17;;
289;SDS011;13193;48.874;9.086;2022-07-22T02:58:03;21.20;;;11.37;;
289;SDS011;13193;48.874;9.086;2022-07-22T03:00:30;17.00;;;11.30;;
289;SDS011;13193;48.874;9.086;2022-07-22T03:02:56;20.07;;;11.50;;
289;SDS011;13193;48.874;9.086;2022-07-22T03:05:21;23.20;;;11.20;;
289;SDS011;13193;48.874;9.086;2022-07-22T03:07:47;17.07;;;11.20;;
289;SDS011;13193;48.874;9.086;2022-07-22T03:10:17;17.97;;;10.60;;
289;SDS011;13193;48.874;9.086;2022-07-22T03:12:43;21.50;;;12.10;;
289;SDS011;13193;48.874;9.086;2022-07-22T03:15:11;17.37;;;10.70;;
289;SDS011;13193;48.874;9.086;2022-07-22T03:17:37;18.23;;;10.93;;
289;SDS011;13193;48.874;9.086;2022-07-22T03:20:03;24.63;;;12.03;;
289;SDS011;13193;48.874;9.086;2022-07-22T03:22:30;19.20;;;10.33;;
289;SDS011;13193;48.874;9.086;2022-07-22T03:24:56;20.03;;;11.40;;
289;SDS011;13193;48.874;9.086;2022-07-22T03:27:24;19.87;;;10.43;;
289;SDS011;13193;48.874;9.086;2022-07-22T03:29:50;19.70;;;11.77;;
289;SDS011;13193;48.874;9.086;2022-07-22T03:32:16;20.27;;;12.00;;
289;SDS011;13193;48.874;9.086;2022-07-22T03:34:44;20.43;;;11.53;;
289;SDS011;13193;48.874;9.086;2022-07-22T03:37:19;27.93;;;11.50;;
289;SDS011;13193;48.874;9.086;2022-07-22T03:39:45;19.37;;;12.23;;
289;SDS011;13193;48.874;9.086;2022-07-22T03:42:10;19.97;;;12.60;;
289;SDS011;13193;48.874;9.086;2022-07-22T03:44:38;20.23;;;13.00;;
289;SDS011;13193;48.874;9.086;2022-07-22T03:47:06;21.50;;;11.90;;
289;SDS011;13193;48.874;9.086;2022-07-22T03:49:32;29.63;;;13.13;;
289;SDS011;13193;48.874;9.086;2022-07-22T03:51:58;21.40;;;12.93;;
289;SDS011;13193;48.874;9.086;2022-07-22T03:54:24;21.37;;;12.90;;
289;SDS011;13193;48.874;9.086;2022-07-22T03:56:50;22.47;;;13.00;;
289;SDS011;13193;48.874;9.086;2022-07-22T03:59:18;19.73;;;11.67;;
289;SDS011;13193;48.874;9.086;2022-07-22T04:01:48;27.23;;;13.20;;
289;SDS011;13193;48.874;9.086;2022-07-22T04:04:14;21.53;;;14.30;;
289;SDS011;13193;48.874;9.086;2022-07-22T04:06:42;24.23;;;11.83;;
289;SDS011;13193;48.874;9.086;2022-07-22T04:09:10;26.97;;;13.80;;
289;SDS011;13193;48.874;9.086;2022-07-22T04:11:36;32.37;;;13.93;;
289;SDS011;13193;48.874;9.086;2022-07-22T04:14:06;22.60;;;12.43;;
289;SDS011;13193;48.874;9.086;2022-07-22T04:16:32;25.27;;;12.20;;
289;SDS011;13193;48.874;9.086;2022-07-22T04:19:01;31.53;;;12.57;;
289;SDS011;13193;48.874;9.086;2022-07-22T04:21:34;22.20;;;13.33;;
289;SDS011;13193;48.874;9.086;2022-07-22T04:24:00;18.73;;;11.37;;
289;SDS011;13193;48.874;9.086;2022-07-22T04:26:26;23.90;;;12.07;;
289;SDS011;13193;48.874;9.086;2022-07-22T04:28:54;26.43;;;13.60;;
289;SDS011;13193;48.874;9.086;2022-07-22T04:31:22;20.73;;;12.07;;
289;SDS011;13193;48.874;9.086;2022-07-22T04:33:53;23.03;;;12.87;;
289;SDS011;13193;48.874;9.086;2022-07-22T04:36:20;17.70;;;11.60;;
289;SDS011;13193;48.874;9.086;2022-07-22T04:38:46;21.13;;;12.83;;
289;SDS011;13193;48.874;9.086;2022-07-22T04:41:12;22.90;;;11.47;;
289;SDS011;13193;48.874;9.086;2022-07-22T04:43:37;19.97;;;11.40;;
289;SDS011;13193;48.874;9.086;2022-07-22T04:46:03;28.10;;;12.37;;
289;SDS011;13193;48.874;9.086;2022-07-22T04:48:30;17.97;;;11.47;;
289;SDS011;13193;48.874;9.086;2022-07-22T04:51:01;18.00;;;10.90;;
289;SDS011;13193;48.874;9.086;2022-07-22T04:53:28;19.93;;;10.80;;
289;SDS011;13193;48.874;9.086;2022-07-22T04:55:56;21.00;;;10.80;;
289;SDS011;13193;48.874;9.086;2022-07-22T04:58:22;19.80;;;11.70;;
289;SDS011;13193;48.874;9.086;2022-07-22T05:00:50;21.20;;;12.87;;
289;SDS011;13193;48.874;9.086;2022-07-22T05:03:15;20.47;;;13.10;;
289;SDS011;13193;48.874;9.086;2022-07-22T05:05:50;18.03;;;10.77;;
289;SDS011;13193;48.874;9.086;2022-07-22T05:08:16;16.90;;;10.33;;
289;SDS011;13193;48.874;9.086;2022-07-22T05:10:42;24.53;;;10.20;;
289;SDS011;13193;48.874;9.086;2022-07-22T05:13:07;18.33;;;11.03;;
289;SDS011;13193;48.874;9.086;2022-07-22T05:15:33;21.30;;;10.13;;
289;SDS011;13193;48.874;9.086;2022-07-22T05:17:59;15.23;;;9.67;;
289;SDS011;13193;48.874;9.086;2022-07-22T05:20:25;15.07;;;9.63;;
289;SDS011;13193;48.874;9.086;2022-07-22T05:22:50;19.07;;;9.63;;
289;SDS011;13193;48.874;9.086;2022-07-22T05:25:18;17.07;;;9.93;;
289;SDS011;13193;48.874;9.086;2022-07-22T05:27:52;14.77;;;9.73;;
289;SDS011;13193;48.874;9.086;2022-07-22T05:30:19;15.53;;;9.30;;
289;SDS011;13193;48.874;9.086;2022-07-22T05:32:48;16.37;;;10.87;;
289;SDS011;13193;48.874;9.086;2022-07-22T05:35:16;13.50;;;9.10;;
289;SDS011;13193;48.874;9.086;2022-07-22T05:37:44;15.23;;;10.10;;
289;SDS011;13193;48.874;9.086;2022-07-22T05:40:13;12.03;;;8.83;;
289;SDS011;13193;48.874;9.086;2022-07-22T05:42:39;17.17;;;9.90;;
289;SDS011;13193;48.874;9.086;2022-07-22T05:45:07;16.57;;;9.77;;
289;SDS011;13193;48.874;9.086;2022-07-22T05:47:35;17.80;;;9.63;;
289;SDS011;13193;48.874;9.086;2022-07-22T05:50:01;15.77;;;10.43;;
289;SDS011;13193;48.874;9.086;2022-07-22T05:52:27;17.27;;;10.70;;
289;SDS011;13193;48.874;9.086;2022-07-22T05:54:54;15.10;;;10.00;;
289;SDS011;13193;48.874;9.086;2022-07-22T05:57:23;20.80;;;10.23;;
289;SDS011;13193;48.874;9.086;2022-07-22T05:59:51;11.60;;;8.23;;
289;SDS011;13193;48.874;9.086;2022-07-22T06:02:19;13.83;;;8.67;;
289;SDS011;13193;48.874;9.086;2022-07-22T06:04:44;15.17;;;10.10;;
289;SDS011;13193;48.874;9.086;2022-07-22T06:07:10;13.47;;;9.57;;
289;SDS011;13193;48.874;9.086;2022-07-22T06:09:38;17.57;;;10.70;;
289;SDS011;13193;48.874;9.086;2022-07-22T06:12:04;19.30;;;10.07;;
289;SDS011;13193;48.874;9.086;2022-07-22T06:14:32;14.83;;;9.03;;
289;SDS011;13193;48.874;9.086;2022-07-22T06:17:03;22.73;;;10.97;;
289;SDS011;13193;48.874;9.086;2022-07-22T06:19:32;16.77;;;8.80;;
289;SDS011;13193;48.874;9.086;2022-07-22T06:22:00;17.77;;;10.27;;
289;SDS011;13193;48.874;9.086;2022-07-22T06:24:27;16.87;;;10.13;;
289;SDS011;13193;48.874;9.086;2022-07-22T06:26:53;14.57;;;8.90;;
289;SDS011;13193;48.874;9.086;2022-07-22T06:29:21;16.87;;;11.30;;
289;SDS011;13193;48.874;9.086;2022-07-22T06:31:47;20.83;;;12.20;;
289;SDS011;13193;48.874;9.086;2022-07-22T06:34:13;16.53;;;11.40;;
289;SDS011;13193;48.874;9.086;2022-07-22T06:36:44;19.03;;;10.80;;
289;SDS011;13193;48.874;9.086;2022-07-22T06:39:12;22.60;;;12.00;;
289;SDS011;13193;48.874;9.086;2022-07-22T06:41:37;17.17;;;9.73;;
289;SDS011;13193;48.874;9.086;2022-07-22T06:44:05;17.93;;;10.50;;
289;SDS011;13193;48.874;9.086;2022-07-22T06:46:34;21.30;;;12.33;;
289;SDS011;13193;48.874;9.086;2022-07-22T06:49:00;19.67;;;11.30;;
289;SDS011;13193;48.874;9.086;2022-07-22T06:51:26;21.23;;;12.10;;
289;SDS011;13193;48.874;9.086;2022-07-22T06:53:52;17.80;;;11.57;;
289;SDS011;13193;48.874;9.086;2022-07-22T06:56:18;22.73;;;12.13;;
289;SDS011;13193;48.874;9.086;2022-07-22T06:58:44;16.50;;;10.10;;
289;SDS011;13193;48.874;9.086;2022-07-22T07:01:09;16.67;;;11.53;;
289;SDS011;13193;48.874;9.086;2022-07-22T07:03:35;23.10;;;11.50;;
289;SDS011;13193;48.874;9.086;2022-07-22T07:06:01;22.60;;;9.83;;
289;SDS011;13193;48.874;9.086;2022-07-22T07:08:28;18.73;;;11.00;;
289;SDS011;13193;48.874;9.086;2022-07-22T07:10:56;23.00;;;12.57;;
289;SDS011;13193;48.874;9.086;2022-07-22T07:13:29;17.97;;;11.30;;
289;SDS011;13193;48.874;9.086;2022-07-22T07:15:57;19.40;;;11.30;;
289;SDS011;13193;48.874;9.086;2022-07-22T07:18:23;21.53;;;11.30;;
289;SDS011;13193;48.874;9.086;2022-07-22T07:20:49;18.57;;;11.37;;
289;SDS011;13193;48.874;9.086;2022-07-22T07:23:17;18.23;;;11.10;;
289;SDS011;13193;48.874;9.086;2022-07-22T07:25:43;18.20;;;11.23;;
289;SDS011;13193;48.874;9.086;2022-07-22T07:28:08;17.90;;;11.20;;
289;SDS011;13193;48.874;9.086;2022-07-22T07:30:34;23.97;;;12.40;;
289;SDS011;13193;48.874;9.086;2022-07-22T07:33:02;15.97;;;11.13;;
289;SDS011;13193;48.874;9.086;2022-07-22T07:35:28;23.60;;;11.30;;
289;SDS011;13193;48.874;9.086;2022-07-22T07:37:54;25.37;;;12.27;;
289;SDS011;13193;48.874;9.086;2022-07-22T07:40:20;26.07;;;12.00;;
289;SDS011;13193;48.874;9.086;2022-07-22T07:42:46;21.63;;;11.97;;
289;SDS011;13193;48.874;9.086;2022-07-22T07:45:16;20.50;;;12.53;;
289;SDS011;13193;48.874;9.086;2022-07-22T07:47:42;23.60;;;10.63;;
289;SDS011;13193;48.874;9.086;2022-07-22T07:50:10;17.37;;;10.80;;
289;SDS011;13193;48.874;9.086;2022-07-22T07:52:39;19.63;;;11.50;;
289;SDS011;13193;48.874;9.086;2022-07-22T07:55:07;20.77;;;11.07;;
289;SDS011;13193;48.874;9.086;2022-07-22T07:57:34;19.47;;;10.07;;
289;SDS011;13193;48.874;9.086;2022-07-22T08:00:01;20.73;;;10.70;;
289;SDS011;13193;48.874;9.086;2022-07-22T08:02:31;18.03;;;11.33;;
289;SDS011;13193;48.874;9.086;2022-07-22T08:04:59;26.53;;;11.70;;
289;SDS011;13193;48.874;9.086;2022-07-22T08:07:26;16.93;;;11.60;;
289;SDS011;13193;48.874;9.086;2022-07-22T08:09:52;19.37;;;11.47;;
289;SDS011;13193;48.874;9.086;2022-07-22T08:12:18;13.10;;;9.70;;
289;SDS011;13193;48.874;9.086;2022-07-22T08:14:44;19.93;;;10.43;;
289;SDS011;13193;48.874;9.086;2022-07-22T08:17:12;17.93;;;9.53;;
289;SDS011;13193;48.874;9.086;2022-07-22T08:19:41;13.93;;;10.20;;
289;SDS011;13193;48.874;9.086;2022-07-22T08:22:06;22.37;;;11.20;;
289;SDS011;13193;48.874;9.086;2022-07-22T08:24:34;33.97;;;11.30;;
289;SDS011;13193;48.874;9.086;2022-07-22T08:27:01;18.40;;;9.70;;
289;SDS011;13193;48.874;9.086;2022-07-22T08:29:29;13.53;;;8.80;;
289;SDS011;13193;48.874;9.086;2022-07-22T08:31:57;19.30;;;10.97;;
289;SDS011;13193;48.874;9.086;2022-07-22T08:34:22;17.67;;;10.40;;
289;SDS011;13193;48.874;9.086;2022-07-22T08:36:48;17.10;;;11.20;;
289;SDS011;13193;48.874;9.086;2022-07-22T08:39:14;21.30;;;10.50;;
289;SDS011;13193;48.874;9.086;2022-07-22T08:41:40;18.77;;;10.57;;
289;SDS011;13193;48.874;9.086;2022-07-22T08:44:07;17.60;;;11.17;;
289;SDS011;13193;48.874;9.086;2022-07-22T08:46:34;17.17;;;10.30;;
289;SDS011;13193;48.874;9.086;2022-07-22T08:49:02;17.10;;;10.43;;
289;SDS011;13193;48.874;9.086;2022-07-22T08:51:28;15.70;;;9.00;;
289;SDS011;13193;48.874;9.086;2022-07-22T08:53:54;15.73;;;9.87;;
289;SDS011;13193;48.874;9.086;2022-07-22T08:56:20;18.77;;;9.63;;
289;SDS011;13193;48.874;9.086;2022-07-22T08:58:48;20.10;;;10.50;;
289;SDS011;13193;48.874;9.086;2022-07-22T09:01:16;21.93;;;10.30;;
289;SDS011;13193;48.874;9.086;2022-07-22T09:03:47;17.60;;;10.30;;
289;SDS011;13193;48.874;9.086;2022-07-22T09:06:17;15.50;;;10.00;;
289;SDS011;13193;48.874;9.086;2022-07-22T09:08:51;16.00;;;8.70;;
289;SDS011;13193;48.874;9.086;2022-07-22T09:11:19;15.43;;;10.20;;
289;SDS011;13193;48.874;9.086;2022-07-22T09:13:49;14.20;;;9.13;;
289;SDS011;13193;48.874;9.086;2022-07-22T09:16:19;13.30;;;10.03;;
289;SDS011;13193;48.874;9.086;2022-07-22T09:19:09;14.30;;;8.00;;
289;SDS011;13193;48.874;9.086;2022-07-22T09:21:37;17.77;;;8.53;;
289;SDS011;13193;48.874;9.086;2022-07-22T09:24:07;19.13;;;9.53;;
289;SDS011;13193;48.874;9.086;2022-07-22T09:26:35;16.23;;;9.17;;
289;SDS011;13193;48.874;9.086;2022-07-22T09:29:02;12.93;;;7.80;;
289;SDS011;13193;48.874;9.086;2022-07-22T09:31:33;17.33;;;9.90;;
289;SDS011;13193;48.874;9.086;2022-07-22T09:34:00;11.63;;;8.40;;
289;SDS011;13193;48.874;9.086;2022-07-22T09:36:26;19.33;;;8.43;;
289;SDS011;13193;48.874;9.086;2022-07-22T09:38:53;13.03;;;8.17;;
289;SDS011;13193;48.874;9.086;2022-07-22T09:41:19;12.40;;;7.83;;
289;SDS011;13193;48.874;9.086;2022-07-22T09:43:45;17.10;;;10.10;;
289;SDS011;13193;48.874;9.086;2022-07-22T09:46:11;17.00;;;9.57;;
289;SDS011;13193;48.874;9.086;2022-07-22T09:48:37;22.17;;;9.93;;
289;SDS011;13193;48.874;9.086;2022-07-22T09:51:05;17.67;;;9.77;;
289;SDS011;13193;48.874;9.086;2022-07-22T09:53:32;13.00;;;9.40;;
289;SDS011;13193;48.874;9.086;2022-07-22T09:55:59;16.40;;;9.20;;
289;SDS011;13193;48.874;9.086;2022-07-22T09:58:30;14.50;;;9.60;;
289;SDS011;13193;48.874;9.086;2022-07-22T10:00:58;16.07;;;9.23;;
289;SDS011;13193;48.874;9.086;2022-07-22T10:03:28;14.17;;;9.30;;
289;SDS011;13193;48.874;9.086;2022-07-22T10:05:56;15.07;;;9.97;;
289;SDS011;13193;48.874;9.086;2022-07-22T10:08:23;11.83;;;8.30;;
289;SDS011;13193;48.874;9.086;2022-07-22T10:10:50;12.77;;;9.17;;
289;SDS011;13193;48.874;9.086;2022-07-22T10:13:17;13.20;;;8.40;;
289;SDS011;13193;48.874;9.086;2022-07-22T10:15:44;16.87;;;8.57;;
289;SDS011;13193;48.874;9.086;2022-07-22T10:18:15;14.83;;;8.83;;
289;SDS011;13193;48.874;9.086;2022-07-22T10:20:44;11.27;;;7.97;;
289;SDS011;13193;48.874;9.086;2022-07-22T10:23:13;13.47;;;8.60;;
289;SDS011;13193;48.874;9.086;2022-07-22T10:25:53;12.60;;;7.30;;
289;SDS011;13193;48.874;9.086;2022-07-22T10:28:28;14.03;;;8.70;;
289;SDS011;13193;48.874;9.086;2022-07-22T10:31:16;17.17;;;8.20;;
289;SDS011;13193;48.874;9.086;2022-07-22T10:33:47;17.13;;;8.33;;
289;SDS011;13193;48.874;9.086;2022-07-22T10:36:15;13.20;;;9.13;;
289;SDS011;13193;48.874;9.086;2022-07-22T10:39:09;12.23;;;6.87;;
289;SDS011;13193;48.874;9.086;2022-07-22T10:41:37;12.23;;;7.47;;
289;SDS011;13193;48.874;9.086;2022-07-22T10:44:04;12.40;;;8.37;;
289;SDS011;13193;48.874;9.086;2022-07-22T10:49:28;10.60;;;7.43;;
289;SDS011;13193;48.874;9.086;2022-07-22T10:54:32;11.97;;;8.43;;
289;SDS011;13193;48.874;9.086;2022-07-22T10:56:59;16.07;;;9.67;;
289;SDS011;13193;48.874;9.086;2022-07-22T10:59:25;12.70;;;8.50;;
289;SDS011;13193;48.874;9.086;2022-07-22T11:01:53;10.30;;;7.40;;
289;SDS011;13193;48.874;9.086;2022-07-22T11:06:50;12.20;;;8.43;;
289;SDS011;13193;48.874;9.086;2022-07-22T11:09:17;12.63;;;8.03;;
289;SDS011;13193;48.874;9.086;2022-07-22T11:11:45;14.17;;;8.47;;
289;SDS011;13193;48.874;9.086;2022-07-22T11:16:53;14.40;;;8.40;;
289;SDS011;13193;48.874;9.086;2022-07-22T11:19:27;11.03;;;7.83;;
289;SDS011;13193;48.874;9.086;2022-07-22T11:21:57;11.97;;;7.97;;
289;SDS011;13193;48.874;9.086;2022-07-22T11:24:29;17.60;;;8.60;;
289;SDS011;13193;48.874;9.086;2022-07-22T11:26:55;19.80;;;9.27;;
289;SDS011;13193;48.874;9.086;2022-07-22T11:29:24;12.83;;;7.83;;
289;SDS011;13193;48.874;9.086;2022-07-22T11:31:51;13.10;;;8.03;;
289;SDS011;13193;48.874;9.086;2022-07-22T11:34:17;15.23;;;9.63;;
289;SDS011;13193;48.874;9.086;2022-07-22T11:36:44;9.80;;;8.07;;
289;SDS011;13193;48.874;9.086;2022-07-22T11:39:12;15.57;;;9.47;;
289;SDS011;13193;48.874;9.086;2022-07-22T11:41:39;17.53;;;8.20;;
289;SDS011;13193;48.874;9.086;2022-07-22T11:44:07;14.60;;;7.30;;
289;SDS011;13193;48.874;9.086;2022-07-22T11:46:40;18.10;;;9.50;;
289;SDS011;13193;48.874;9.086;2022-07-22T11:49:07;15.27;;;9.07;;
289;SDS011;13193;48.874;9.086;2022-07-22T11:51:34;15.47;;;8.90;;
289;SDS011;13193;48.874;9.086;2022-07-22T11:54:02;13.17;;;8.40;;
289;SDS011;13193;48.874;9.086;2022-07-22T11:56:29;13.10;;;7.90;;
289;SDS011;13193;48.874;9.086;2022-07-22T11:58:55;10.93;;;8.47;;
289;SDS011;13193;48.874;9.086;2022-07-22T12:01:25;16.50;;;7.83;;
289;SDS011;13193;48.874;9.086;2022-07-22T12:04:02;10.87;;;8.20;;
289;SDS011;13193;48.874;9.086;2022-07-22T12:06:30;14.47;;;8.40;;
289;SDS011;13193;48.874;9.086;2022-07-22T12:09:05;14.90;;;7.97;;
289;SDS011;13193;48.874;9.086;2022-07-22T12:11:46;11.40;;;6.77;;
289;SDS011;13193;48.874;9.086;2022-07-22T12:14:15;20.80;;;6.97;;
289;SDS011;13193;48.874;9.086;2022-07-22T12:16:56;9.80;;;6.87;;
289;SDS011;13193;48.874;9.086;2022-07-22T12:19:22;12.37;;;8.17;;
289;SDS011;13193;48.874;9.086;2022-07-22T12:21:50;11.80;;;8.33;;
289;SDS011;13193;48.874;9.086;2022-07-22T12:24:24;12.20;;;8.10;;
289;SDS011;13193;48.874;9.086;2022-07-22T12:26:54;11.93;;;7.27;;
289;SDS011;13193;48.874;9.086;2022-07-22T12:31:50;16.83;;;8.47;;
289;SDS011;13193;48.874;9.086;2022-07-22T12:37:18;13.23;;;6.73;;
289;SDS011;13193;48.874;9.086;2022-07-22T12:42:33;14.23;;;6.67;;
289;SDS011;13193;48.874;9.086;2022-07-22T12:47:45;8.63;;;6.73;;
289;SDS011;13193;48.874;9.086;2022-07-22T12:50:54;11.53;;;7.70;;
289;SDS011;13193;48.874;9.086;2022-07-22T12:53:06;13.33;;;8.00;;
289;SDS011;13193;48.874;9.086;2022-07-22T12:55:57;10.97;;;6.90;;
289;SDS011;13193;48.874;9.086;2022-07-22T12:58:27;12.70;;;7.90;;
289;SDS011;13193;48.874;9.086;2022-07-22T13:00:54;10.57;;;7.97;;
289;SDS011;13193;48.874;9.086;2022-07-22T13:03:21;13.83;;;7.17;;
289;SDS011;13193;48.874;9.086;2022-07-22T13:05:52;10.17;;;6.90;;
289;SDS011;13193;48.874;9.086;2022-07-22T13:08:22;9.27;;;6.63;;
289;SDS011;13193;48.874;9.086;2022-07-22T13:10:48;9.17;;;7.40;;
289;SDS011;13193;48.874;9.086;2022-07-22T13:13:15;11.50;;;7.33;;
289;SDS011;13193;48.874;9.086;2022-07-22T13:15:40;9.00;;;7.03;;
289;SDS011;13193;48.874;9.086;2022-07-22T13:18:06;13.20;;;7.20;;
289;SDS011;13193;48.874;9.086;2022-07-22T13:20:34;11.57;;;7.13;;
289;SDS011;13193;48.874;9.086;2022-07-22T13:23:00;9.27;;;6.90;;
289;SDS011;13193;48.874;9.086;2022-07-22T13:25:26;11.20;;;7.53;;
289;SDS011;13193;48.874;9.086;2022-07-22T13:27:52;14.50;;;7.23;;
289;SDS011;13193;48.874;9.086;2022-07-22T13:30:20;11.60;;;7.43;;
289;SDS011;13193;48.874;9.086;2022-07-22T13:32:48;11.30;;;7.83;;
289;SDS011;13193;48.874;9.086;2022-07-22T13:35:14;13.67;;;8.57;;
289;SDS011;13193;48.874;9.086;2022-07-22T13:37:43;11.63;;;7.37;;
289;SDS011;13193;48.874;9.086;2022-07-22T13:40:10;8.63;;;7.00;;
289;SDS011;13193;48.874;9.086;2022-07-22T13:42:37;9.07;;;6.77;;
289;SDS011;13193;48.874;9.086;2022-07-22T13:45:03;11.50;;;6.23;;
289;SDS011;13193;48.874;9.086;2022-07-22T13:47:29;14.70;;;7.77;;
289;SDS011;13193;48.874;9.086;2022-07-22T13:49:55;10.80;;;6.57;;
289;SDS011;13193;48.874;9.086;2022-07-22T13:52:21;13.20;;;7.00;;
289;SDS011;13193;48.874;9.086;2022-07-22T13:54:47;9.80;;;7.10;;
289;SDS011;13193;48.874;9.086;2022-07-22T13:57:14;11.50;;;7.33;;
289;SDS011;13193;48.874;9.086;2022-07-22T13:59:40;10.20;;;7.50;;
289;SDS011;13193;48.874;9.086;2022-07-22T14:02:08;11.30;;;7.70;;
289;SDS011;13193;48.874;9.086;2022-07-22T14:04:36;9.60;;;6.60;;
289;SDS011;13193;48.874;9.086;2022-07-22T14:07:02;8.70;;;6.90;;
289;SDS011;13193;48.874;9.086;2022-07-22T14:09:27;11.20;;;6.73;;
289;SDS011;13193;48.874;9.086;2022-07-22T14:11:56;8.70;;;7.17;;
289;SDS011;13193;48.874;9.086;2022-07-22T14:14:23;14.37;;;6.90;;
289;SDS011;13193;48.874;9.086;2022-07-22T14:16:49;9.80;;;7.93;;
289;SDS011;13193;48.874;9.086;2022-07-22T14:19:15;9.97;;;6.93;;
289;SDS011;13193;48.874;9.086;2022-07-22T14:21:42;9.83;;;6.93;;
289;SDS011;13193;48.874;9.086;2022-07-22T14:24:09;11.37;;;7.80;;
289;SDS011;13193;48.874;9.086;2022-07-22T14:26:35;14.07;;;6.97;;
289;SDS011;13193;48.874;9.086;2022-07-22T14:29:02;12.63;;;7.63;;
289;SDS011;13193;48.874;9.086;2022-07-22T14:31:28;11.17;;;6.37;;
289;SDS011;13193;48.874;9.086;2022-07-22T14:33:57;13.53;;;6.70;;
289;SDS011;13193;48.874;9.086;2022-07-22T14:36:23;9.97;;;6.67;;
289;SDS011;13193;48.874;9.086;2022-07-22T14:38:51;10.13;;;6.80;;
289;SDS011;13193;48.874;9.086;2022-07-22T14:41:18;14.10;;;6.50;;
289;SDS011;13193;48.874;9.086;2022-07-22T14:43:45;11.03;;;7.20;;
289;SDS011;13193;48.874;9.086;2022-07-22T14:46:10;13.10;;;7.40;;
289;SDS011;13193;48.874;9.086;2022-07-22T14:48:37;13.70;;;7.17;;
289;SDS011;13193;48.874;9.086;2022-07-22T14:51:04;13.13;;;6.27;;
289;SDS011;13193;48.874;9.086;2022-07-22T14:53:30;8.17;;;6.47;;
289;SDS011;13193;48.874;9.086;2022-07-22T14:55:55;8.50;;;6.10;;
289;SDS011;13193;48.874;9.086;2022-07-22T14:58:21;10.37;;;6.70;;
289;SDS011;13193;48.874;9.086;2022-07-22T15:00:47;9.90;;;6.57;;
289;SDS011;13193;48.874;9.086;2022-07-22T15:03:13;9.10;;;6.43;;
289;SDS011;13193;48.874;9.086;2022-07-22T15:05:39;8.40;;;6.80;;
289;SDS011;13193;48.874;9.086;2022-07-22T15:08:07;9.60;;;6.60;;
289;SDS011;13193;48.874;9.086;2022-07-22T15:10:36;9.90;;;6.50;;
289;SDS011;13193;48.874;9.086;2022-07-22T15:13:02;8.53;;;6.30;;
289;SDS011;13193;48.874;9.086;2022-07-22T15:15:28;15.70;;;7.37;;
289;SDS011;13193;48.874;9.086;2022-07-22T15:17:54;9.97;;;6.43;;
289;SDS011;13193;48.874;9.086;2022-07-22T15:20:20;11.77;;;7.07;;
289;SDS011;13193;48.874;9.086;2022-07-22T15:22:45;10.90;;;6.13;;